createdAt,value
2022-12-18T00:01:33.530Z,2.38
2022-12-18T00:04:35.058Z,2.70
2022-12-18T00:07:37.593Z,2.60
2022-12-18T00:10:38.943Z,2.50
2022-12-18T00:13:41.072Z,3.22
2022-12-18T00:16:44.751Z,2.13
2022-12-18T00:19:46.132Z,2.83
2022-12-18T00:22:48.110Z,2.40
2022-12-18T00:25:49.574Z,2.70
2022-12-18T00:28:51.998Z,2.42
2022-12-18T00:31:53.518Z,2.45
2022-12-18T00:37:56.823Z,2.20
2022-12-18T00:40:58.509Z,2.55
2022-12-18T00:47:00.943Z,2.50
2022-12-18T00:50:02.379Z,2.67
2022-12-18T00:53:04.487Z,2.30
2022-12-18T00:56:06.356Z,2.80
2022-12-18T00:59:07.742Z,2.20
2022-12-18T01:02:09.943Z,2.30
2022-12-18T01:05:13.357Z,2.40
2022-12-18T01:08:15.470Z,2.53
2022-12-18T01:11:20.074Z,2.72
2022-12-18T01:14:21.546Z,2.35
2022-12-18T01:17:22.953Z,2.30
2022-12-18T01:20:24.351Z,2.20
2022-12-18T01:23:26.323Z,2.63
2022-12-18T01:26:29.702Z,2.28
2022-12-18T01:29:32.153Z,2.42
2022-12-18T01:35:41.253Z,2.53
2022-12-18T01:38:43.619Z,2.35
2022-12-18T01:42:00.698Z,2.50
2022-12-18T01:45:07.692Z,2.65
2022-12-18T01:48:09.551Z,2.25
2022-12-18T01:51:12.889Z,2.40
2022-12-18T01:54:14.878Z,2.20
2022-12-18T01:57:16.807Z,2.35
2022-12-18T02:00:21.319Z,2.30
2022-12-18T02:03:22.814Z,2.60
2022-12-18T02:06:29.366Z,2.53
2022-12-18T02:09:37.406Z,2.72
2022-12-18T02:12:45.486Z,2.30
2022-12-18T02:15:56.957Z,2.25
2022-12-18T02:19:04.399Z,2.38
2022-12-18T02:22:20.577Z,3.17
2022-12-18T02:25:39.962Z,2.20
2022-12-18T02:28:45.855Z,2.33
2022-12-18T02:31:52.912Z,2.50
2022-12-18T02:34:57.289Z,2.50
2022-12-18T02:38:00.724Z,2.47
2022-12-18T02:41:06.630Z,2.35
2022-12-18T02:44:10.879Z,2.33
2022-12-18T02:47:14.152Z,2.63
2022-12-18T02:50:23.557Z,2.50
2022-12-18T02:53:34.217Z,2.78
2022-12-18T02:56:44.435Z,2.30
2022-12-18T02:59:55.440Z,2.45
2022-12-18T03:03:03.412Z,2.30
2022-12-18T03:06:10.182Z,2.90
2022-12-18T03:09:16.187Z,2.58
2022-12-18T03:12:23.294Z,2.63
2022-12-18T03:15:29.490Z,2.72
2022-12-18T03:18:44.765Z,2.33
2022-12-18T03:21:50.054Z,2.60
2022-12-18T03:24:54.455Z,2.50
2022-12-18T03:27:59.217Z,2.40
2022-12-18T03:31:02.187Z,2.35
2022-12-18T03:34:09.481Z,2.85
2022-12-18T03:37:16.767Z,2.28
2022-12-18T03:40:20.519Z,2.63
2022-12-18T03:43:35.778Z,2.40
2022-12-18T03:46:46.373Z,2.45
2022-12-18T03:49:54.312Z,2.78
2022-12-18T03:53:06.430Z,2.63
2022-12-18T03:56:10.454Z,3.17
2022-12-18T03:59:17.424Z,2.53
2022-12-18T04:02:21.555Z,2.50
2022-12-18T04:05:26.576Z,2.28
2022-12-18T04:08:29.335Z,2.78
2022-12-18T04:11:37.303Z,2.30
2022-12-18T04:14:40.262Z,3.05
2022-12-18T04:17:48.637Z,2.33
2022-12-18T04:20:52.400Z,2.80
2022-12-18T04:23:54.415Z,2.47
2022-12-18T04:26:57.575Z,2.55
2022-12-18T04:30:03.490Z,2.25
2022-12-18T04:33:10.329Z,2.75
2022-12-18T04:36:12.992Z,2.15
2022-12-18T04:39:19.942Z,2.53
2022-12-18T04:42:23.971Z,2.53
2022-12-18T04:45:25.441Z,2.67
2022-12-18T04:51:28.656Z,2.30
2022-12-18T04:54:30.059Z,2.38
2022-12-18T04:57:31.418Z,2.83
2022-12-18T05:00:32.880Z,2.70
2022-12-18T05:03:36.541Z,2.47
2022-12-18T05:06:38.011Z,2.50
2022-12-18T05:09:39.450Z,2.10
2022-12-18T05:12:55.488Z,2.17
2022-12-18T05:15:57.555Z,2.58
2022-12-18T05:18:59.545Z,2.20
2022-12-18T05:22:01.594Z,2.42
2022-12-18T05:25:03.130Z,2.60
2022-12-18T05:31:06.117Z,2.42
2022-12-18T05:37:09.480Z,2.45
2022-12-18T05:40:12.238Z,3.15
2022-12-18T05:43:19.385Z,2.17
2022-12-18T05:46:22.669Z,2.28
2022-12-18T05:49:24.740Z,2.30
2022-12-18T05:52:26.129Z,2.10
2022-12-18T05:55:27.862Z,2.30
2022-12-18T05:58:29.493Z,2.70
2022-12-18T06:04:33.262Z,2.30
2022-12-18T06:07:35.008Z,2.47
2022-12-18T06:10:36.909Z,2.20
2022-12-18T06:13:38.941Z,2.25
2022-12-18T06:16:40.749Z,2.75
2022-12-18T06:22:44.391Z,2.22
2022-12-18T06:25:46.139Z,2.47
2022-12-18T06:28:47.900Z,2.45
2022-12-18T06:31:49.406Z,2.13
2022-12-18T06:40:54.220Z,2.33
2022-12-18T06:43:59.593Z,2.35
2022-12-18T06:47:01.499Z,1.73
2022-12-18T06:56:10.590Z,1.92
2022-12-18T06:59:13.403Z,2.00
2022-12-18T07:02:14.881Z,2.22
2022-12-18T07:11:20.459Z,2.00
2022-12-18T07:14:21.829Z,2.20
2022-12-18T07:17:23.205Z,2.00
2022-12-18T07:20:25.225Z,1.83
2022-12-18T07:23:26.641Z,1.92
2022-12-18T07:26:28.017Z,1.80
2022-12-18T07:29:30.106Z,2.08
2022-12-18T07:32:31.483Z,1.60
2022-12-18T07:35:34.216Z,1.98
2022-12-18T07:38:36.047Z,1.95
2022-12-18T07:41:40.211Z,1.70
2022-12-18T07:44:44.033Z,2.00
2022-12-18T07:47:45.431Z,1.95
2022-12-18T07:50:47.498Z,1.85
2022-12-18T07:53:49.574Z,2.00
2022-12-18T07:56:53.810Z,2.00
2022-12-18T07:59:55.217Z,2.15
2022-12-18T08:02:56.807Z,1.83
2022-12-18T08:09:02.042Z,2.45
2022-12-18T08:12:03.919Z,1.88
2022-12-18T08:15:06.080Z,1.88
2022-12-18T08:18:11.436Z,1.98
2022-12-18T08:21:18.451Z,2.05
2022-12-18T08:24:19.834Z,1.88
2022-12-18T08:27:29.332Z,1.58
2022-12-18T08:30:31.367Z,1.83
2022-12-18T08:33:33.305Z,2.05
2022-12-18T08:36:35.723Z,2.00
2022-12-18T08:39:37.150Z,1.70
2022-12-18T08:42:52.820Z,1.70
2022-12-18T08:45:54.369Z,1.67
2022-12-18T08:51:57.961Z,1.83
2022-12-18T08:54:59.360Z,1.52
2022-12-18T08:58:00.766Z,1.60
2022-12-18T09:01:03.343Z,1.35
2022-12-18T09:04:04.934Z,1.92
2022-12-18T09:07:09.230Z,1.63
2022-12-18T09:10:10.685Z,1.75
2022-12-18T09:13:12.804Z,1.90
2022-12-18T09:16:15.527Z,1.52
2022-12-18T09:19:17.456Z,1.85
2022-12-18T09:22:19.443Z,1.75
2022-12-18T09:25:20.806Z,1.60
2022-12-18T09:28:22.549Z,1.67
2022-12-18T09:31:24.919Z,1.80
2022-12-18T09:34:26.329Z,2.25
2022-12-18T09:37:28.377Z,1.90
2022-12-18T09:40:36.590Z,1.50
2022-12-18T09:43:45.825Z,1.80
2022-12-18T09:46:55.063Z,1.65
2022-12-18T09:50:01.421Z,1.23
2022-12-18T09:53:08.291Z,1.65
2022-12-18T09:56:16.288Z,1.70
2022-12-18T09:59:23.978Z,1.88
2022-12-18T10:02:27.171Z,1.60
2022-12-18T10:05:37.790Z,1.45
2022-12-18T10:08:46.768Z,1.60
2022-12-18T10:11:57.445Z,1.70
2022-12-18T10:15:04.896Z,1.70
2022-12-18T10:18:22.178Z,1.80
2022-12-18T10:21:30.760Z,1.50
2022-12-18T10:24:39.596Z,1.60
2022-12-18T10:27:41.353Z,1.70
2022-12-18T10:30:43.871Z,2.08
2022-12-18T10:33:45.812Z,1.60
2022-12-18T10:36:48.801Z,1.60
2022-12-18T10:40:14.292Z,1.50
2022-12-18T10:43:23.506Z,1.52
2022-12-18T10:46:25.052Z,1.70
2022-12-18T10:52:28.728Z,1.48
2022-12-18T10:55:34.226Z,1.77
2022-12-18T10:58:37.741Z,1.77
2022-12-18T11:01:48.937Z,1.20
2022-12-18T11:04:52.405Z,2.03
2022-12-18T11:07:54.543Z,1.50
2022-12-18T11:10:56.756Z,1.40
2022-12-18T11:14:02.706Z,2.15
2022-12-18T11:20:32.255Z,1.73
2022-12-18T11:23:35.027Z,1.55
2022-12-18T11:26:37.346Z,1.60
2022-12-18T11:29:44.910Z,1.67
2022-12-18T11:32:49.190Z,1.50
2022-12-18T11:35:53.322Z,1.92
2022-12-18T11:38:57.902Z,1.65
2022-12-18T11:42:12.584Z,1.60
2022-12-18T11:45:28.203Z,1.30
2022-12-18T11:48:33.774Z,1.10
2022-12-18T11:51:39.270Z,1.42
2022-12-18T11:54:40.701Z,1.80
2022-12-18T11:57:51.707Z,1.60
2022-12-18T12:00:59.970Z,1.50
2022-12-18T12:04:16.383Z,1.60
2022-12-18T12:07:25.899Z,1.33
2022-12-18T12:10:42.222Z,1.20
2022-12-18T12:14:03.702Z,1.17
2022-12-18T12:17:11.148Z,1.25
2022-12-18T12:20:20.941Z,1.02
2022-12-18T12:23:32.633Z,1.20
2022-12-18T12:26:39.372Z,1.25
2022-12-18T12:29:52.292Z,1.25
2022-12-18T12:33:04.818Z,0.90
2022-12-18T12:36:14.552Z,1.30
2022-12-18T12:39:22.053Z,0.95
2022-12-18T12:42:43.168Z,1.30
2022-12-18T12:45:51.114Z,1.25
2022-12-18T12:48:55.396Z,1.23
2022-12-18T12:52:01.362Z,1.38
2022-12-18T12:55:13.066Z,1.20
2022-12-18T12:58:25.706Z,1.38
2022-12-18T13:01:37.579Z,1.60
2022-12-18T13:04:47.491Z,1.50
2022-12-18T13:07:54.195Z,1.50
2022-12-18T13:11:13.258Z,1.17
2022-12-18T13:14:22.884Z,1.58
2022-12-18T13:17:31.539Z,1.55
2022-12-18T13:20:34.972Z,1.55
2022-12-18T13:23:37.508Z,1.35
2022-12-18T13:26:39.059Z,1.67
2022-12-18T13:29:43.188Z,1.40
2022-12-18T13:32:45.107Z,1.90
2022-12-18T13:35:54.999Z,2.25
2022-12-18T13:39:26.692Z,1.20
2022-12-18T13:42:53.239Z,1.30
2022-12-18T13:46:05.994Z,1.55
2022-12-18T13:49:22.690Z,1.30
2022-12-18T13:52:28.128Z,1.40
2022-12-18T13:55:29.682Z,1.40
2022-12-18T14:01:32.948Z,1.35
2022-12-18T14:04:36.026Z,1.63
2022-12-18T14:07:50.361Z,1.60
2022-12-18T14:10:53.327Z,1.48
2022-12-18T14:13:55.003Z,1.30
2022-12-18T14:16:57.111Z,1.65
2022-12-18T14:20:00.572Z,1.80
2022-12-18T14:23:02.220Z,1.35
2022-12-18T14:26:20.594Z,1.10
2022-12-18T14:29:25.110Z,1.55
2022-12-18T14:32:26.598Z,1.55
2022-12-18T14:38:31.244Z,1.35
2022-12-18T14:41:33.332Z,1.10
2022-12-18T14:44:50.752Z,1.23
2022-12-18T14:51:01.210Z,1.33
2022-12-18T14:54:04.934Z,1.02
2022-12-18T14:57:21.222Z,1.40
2022-12-18T15:00:24.902Z,1.23
2022-12-18T15:03:26.443Z,1.58
2022-12-18T15:06:32.300Z,1.30
2022-12-18T15:09:33.972Z,1.40
2022-12-18T15:12:36.939Z,1.23
2022-12-18T15:15:48.528Z,1.17
2022-12-18T15:18:50.058Z,1.25
2022-12-18T15:21:52.107Z,1.25
2022-12-18T15:24:54.808Z,1.23
2022-12-18T15:27:56.303Z,1.48
2022-12-18T15:34:10.197Z,1.10
2022-12-18T15:37:12.136Z,1.27
2022-12-18T15:40:15.194Z,1.10
2022-12-18T15:43:39.547Z,0.98
2022-12-18T15:46:41.193Z,1.20
2022-12-18T15:49:42.606Z,1.10
2022-12-18T15:52:46.805Z,1.17
2022-12-18T15:56:02.897Z,1.13
2022-12-18T15:59:11.515Z,1.17
2022-12-18T16:02:17.647Z,1.27
2022-12-18T16:05:22.047Z,1.10
2022-12-18T16:08:24.082Z,0.90
2022-12-18T16:11:38.197Z,0.90
2022-12-18T16:14:39.652Z,0.82
2022-12-18T16:17:41.461Z,0.85
2022-12-18T16:20:43.006Z,0.90
2022-12-18T16:26:46.392Z,0.90
2022-12-18T16:29:48.517Z,1.00
2022-12-18T16:32:50.485Z,0.70
2022-12-18T16:35:52.872Z,1.05
2022-12-18T16:38:54.902Z,0.90
2022-12-18T16:41:56.867Z,1.00
2022-12-18T16:44:59.662Z,0.90
2022-12-18T16:51:04.325Z,1.17
2022-12-18T16:54:10.923Z,0.70
2022-12-18T16:57:15.722Z,0.70
2022-12-18T17:00:17.858Z,0.80
2022-12-18T17:03:19.345Z,0.70
2022-12-18T17:09:24.473Z,0.90
2022-12-18T17:12:26.537Z,0.85
2022-12-18T17:15:27.941Z,0.95
2022-12-18T17:18:29.352Z,0.65
2022-12-18T17:21:31.009Z,0.60
2022-12-18T17:24:35.343Z,0.60
2022-12-18T17:27:37.090Z,0.85
2022-12-18T17:33:42.773Z,0.98
2022-12-18T17:36:44.853Z,0.95
2022-12-18T17:39:46.842Z,0.90
2022-12-18T17:42:51.783Z,0.60
2022-12-18T17:45:53.419Z,0.77
2022-12-18T17:48:58.775Z,0.80
2022-12-18T17:52:00.260Z,0.95
2022-12-18T18:01:06.202Z,1.15
2022-12-18T18:04:07.719Z,0.90
2022-12-18T18:07:09.290Z,0.85
2022-12-18T18:16:43.210Z,1.08
2022-12-18T18:19:46.794Z,0.70
2022-12-18T18:22:51.311Z,0.70
2022-12-18T18:25:53.313Z,0.82
2022-12-18T18:28:55.252Z,0.70
2022-12-18T18:31:57.415Z,0.80
2022-12-18T18:34:58.853Z,1.42
2022-12-18T18:38:00.730Z,1.05
2022-12-18T18:41:04.406Z,0.70
2022-12-18T18:44:06.198Z,1.30
2022-12-18T18:47:09.640Z,0.82
2022-12-18T18:50:12.156Z,0.93
2022-12-18T18:53:13.921Z,0.77
2022-12-18T18:56:56.352Z,0.70
2022-12-18T18:59:39.716Z,0.57
2022-12-18T19:05:45.994Z,0.65
2022-12-18T19:08:49.431Z,0.68
2022-12-18T19:12:03.300Z,0.88
2022-12-18T19:15:06.012Z,0.50
2022-12-18T19:18:07.927Z,0.60
2022-12-18T19:21:10.654Z,1.02
2022-12-18T19:24:12.100Z,0.80
2022-12-18T19:27:14.227Z,0.88
2022-12-18T19:30:16.168Z,0.70
2022-12-18T19:33:41.712Z,0.50
2022-12-18T19:36:39.661Z,0.73
2022-12-18T19:39:41.045Z,1.00
2022-12-18T19:42:43.100Z,1.15
2022-12-18T19:45:44.499Z,1.00
2022-12-18T19:48:46.867Z,0.68
2022-12-18T19:51:50.407Z,0.50
2022-12-18T19:54:52.801Z,0.98
2022-12-18T19:57:56.219Z,0.70
2022-12-18T20:00:57.687Z,0.77
2022-12-18T20:07:02.632Z,1.02
2022-12-18T20:13:11.433Z,0.50
2022-12-18T20:16:13.191Z,0.73
2022-12-18T20:19:15.117Z,0.55
2022-12-18T20:22:17.664Z,0.70
2022-12-18T20:25:19.092Z,0.65
2022-12-18T20:28:22.254Z,0.43
2022-12-18T20:31:23.849Z,0.90
2022-12-18T20:34:25.483Z,0.50
2022-12-18T20:37:27.600Z,1.75
2022-12-18T20:40:29.857Z,0.90
2022-12-18T20:43:32.832Z,0.70
2022-12-18T20:46:34.323Z,0.50
2022-12-18T20:49:36.057Z,0.70
2022-12-18T20:52:39.423Z,0.57
2022-12-18T20:55:42.358Z,0.40
2022-12-18T20:58:44.871Z,0.60
2022-12-18T21:01:48.803Z,0.70
2022-12-18T21:04:50.832Z,0.55
2022-12-18T21:10:54.269Z,0.70
2022-12-18T21:13:57.836Z,0.55
2022-12-18T21:17:01.098Z,0.40
2022-12-18T21:20:02.991Z,0.40
2022-12-18T21:23:15.622Z,0.60
2022-12-18T21:26:20.373Z,0.80
2022-12-18T21:29:24.493Z,0.57
2022-12-18T21:32:26.157Z,0.80
2022-12-18T21:35:32.215Z,0.55
2022-12-18T21:38:33.919Z,0.60
2022-12-18T21:41:50.631Z,0.70
2022-12-18T21:44:54.543Z,0.70
2022-12-18T21:47:55.939Z,0.55
2022-12-18T21:50:57.381Z,0.47
2022-12-18T21:53:59.408Z,0.85
2022-12-18T21:57:02.361Z,0.60
2022-12-18T22:00:05.841Z,0.80
2022-12-18T22:03:18.555Z,0.85
2022-12-18T22:06:21.668Z,1.00
2022-12-18T22:09:24.981Z,0.63
2022-12-18T22:12:43.690Z,0.77
2022-12-18T22:15:46.795Z,0.95
2022-12-18T22:18:48.282Z,0.90
2022-12-18T22:21:50.191Z,0.70
2022-12-18T22:24:51.935Z,0.88
2022-12-18T22:28:03.402Z,0.85
2022-12-18T22:31:05.808Z,1.33
2022-12-18T22:34:07.909Z,1.00
2022-12-18T22:37:10.935Z,1.38
2022-12-18T22:40:23.679Z,1.73
2022-12-18T22:43:25.792Z,1.05
2022-12-18T22:46:30.239Z,1.05
2022-12-18T22:49:31.982Z,1.33
2022-12-18T22:52:35.747Z,0.70
2022-12-18T22:55:37.140Z,1.50
2022-12-18T22:58:38.684Z,1.83
2022-12-18T23:01:41.273Z,1.88
2022-12-18T23:04:44.372Z,2.00
2022-12-18T23:07:45.829Z,1.40
2022-12-18T23:10:47.216Z,1.15
2022-12-18T23:13:48.593Z,2.17
2022-12-18T23:16:50.795Z,1.95
2022-12-18T23:19:54.548Z,1.55
2022-12-18T23:22:55.995Z,1.25
2022-12-18T23:26:01.689Z,1.42
2022-12-18T23:29:03.855Z,1.25
2022-12-18T23:32:06.183Z,1.17
2022-12-18T23:35:07.980Z,1.17
2022-12-18T23:38:11.408Z,1.10
2022-12-18T23:41:15.754Z,1.70
2022-12-18T23:44:17.114Z,1.92
2022-12-18T23:47:19.178Z,2.40
2022-12-18T23:50:27.166Z,2.00
2022-12-18T23:53:31.222Z,3.03
2022-12-18T23:56:34.857Z,1.77
2022-12-18T23:59:36.247Z,1.95
